CheckWX is a tool to help pilots better visualize weather data.  It is not intended as a substitute for an official pre-flight weather briefing.

09:54:52 UTC

KPGA METAR
Page Municipal Airport
Page, Arizona, USA
Current

1 hour ago

KPGA 260853Z AUTO 21005KT 10SM CLR 17/03 A3008 RMK AO2 SLP125 T01720033 58010 TSNO $
Observed
Apr-26 @ 08:53 UTC
Wind
  • 210° at 5 KTS
Visibility
10 SM
Flight Rules
VFR
Cloud Levels
  • Clear skies
Temperature
17°C / 63°F
Dewpoint
C / 37°F
Humidity
39%
Altimeter
30.08" Hg
Pressure
1018.62 hPa
Previous

2 hours ago

KPGA 260753Z AUTO 24004KT 10SM CLR 18/03 A3010 RMK AO2 SLP132 T01780033 TSNO $
Observed
Apr-26 @ 07:53 UTC
Wind
  • 240° at 4 KTS
Visibility
10 SM
Flight Rules
VFR
Cloud Levels
  • Clear skies
Temperature
18°C / 64°F
Dewpoint
C / 37°F
Humidity
37%
Altimeter
30.1" Hg
Pressure
1019.32 hPa
Previous

3 hours ago

KPGA 260653Z AUTO 23005KT 10SM CLR 19/03 A3011 RMK AO2 SLP138 T01890033 402890144 TSNO $
Observed
Apr-26 @ 06:53 UTC
Wind
  • 230° at 5 KTS
Visibility
10 SM
Flight Rules
VFR
Cloud Levels
  • Clear skies
Temperature
19°C / 66°F
Dewpoint
C / 37°F
Humidity
35%
Altimeter
30.11" Hg
Pressure
1019.62 hPa